Time;durP1;ratioP1;P1;durP2;ratioP2;P2;SDS_P1;SDS_P2;PMS_P1;PMS_P2;Temp;Humidity;BMP_temperature;BMP_pressure;BME280_temperature;BME280_humidity;BME280_pressure;Samples;Min_cycle;Max_cycle;Signal;HPM_P1;HPM_P2
2023/02/20 00:01:35;;;;;;;4.47;1.30;;;;;;;14.22;94.79;97310.34;5104389;28;20516;-48
2023/02/20 00:04:03;;;;;;;3.78;1.20;;;;;;;13.80;100.00;97313.44;5110172;28;20075;-46
2023/02/20 00:06:32;;;;;;;4.28;1.20;;;;;;;14.30;96.37;97317.56;5105120;28;20535;-49
2023/02/20 00:09:00;;;;;;;4.95;1.23;;;;;;;14.33;95.76;97314.63;5111672;27;20080;-52
2023/02/20 00:11:28;;;;;;;4.60;1.15;;;;;;;14.31;97.18;97319.22;5106274;27;20067;-49
2023/02/20 00:13:56;;;;;;;5.20;1.27;;;;;;;14.00;99.59;97309.75;5117545;27;20074;-49
2023/02/20 00:16:26;;;;;;;4.35;0.90;;;;;;;14.17;97.07;97310.78;5109311;28;20074;-51
2023/02/20 00:18:54;;;;;;;8.35;1.70;;;;;;;13.86;100.00;97309.34;5098175;28;20072;-50
2023/02/20 00:21:23;;;;;;;2.55;1.30;;;;;;;13.88;100.00;97313.53;5113359;27;20464;-49
2023/02/20 00:23:51;;;;;;;3.63;1.50;;;;;;;14.12;97.27;97312.22;5110599;28;20075;-50
2023/02/20 00:26:19;;;;;;;4.38;1.45;;;;;;;14.23;97.45;97315.50;5100861;28;20086;-48
2023/02/20 00:28:48;;;;;;;4.22;1.50;;;;;;;14.20;97.90;97307.00;5101555;28;20063;-51
2023/02/20 00:31:18;;;;;;;2.38;1.08;;;;;;;13.74;100.00;97309.53;5110494;27;20070;-50
2023/02/20 00:33:48;;;;;;;;;;;;;;;13.75;100.00;97313.00;5098575;28;20079;-53
2023/02/20 00:36:17;;;;;;;3.53;1.20;;;;;;;14.07;99.39;97298.53;5100865;28;19963;-49
2023/02/20 00:38:46;;;;;;;4.15;1.70;;;;;;;14.10;100.00;97303.53;5100467;28;20480;-48
2023/02/20 00:41:16;;;;;;;1.92;1.20;;;;;;;14.02;99.76;97299.81;5092298;28;20082;-49
2023/02/20 00:43:44;;;;;;;;;;;;;;;14.02;99.24;97307.75;5097384;28;20825;-47
2023/02/20 00:46:14;;;;;;;3.42;1.35;;;;;;;14.05;100.00;97303.16;5103129;28;19962;-49
2023/02/20 00:48:43;;;;;;;2.47;1.48;;;;;;;13.31;100.00;97310.00;5100608;28;20075;-47
2023/02/20 00:51:13;;;;;;;5.00;1.58;;;;;;;14.14;97.19;97304.91;5092294;28;20067;-47
2023/02/20 00:53:41;;;;;;;4.47;1.40;;;;;;;13.87;100.00;97303.09;5099043;28;20095;-50
2023/02/20 00:56:10;;;;;;;4.40;1.48;;;;;;;14.00;100.00;97308.88;5098075;28;20075;-48
2023/02/20 00:58:38;;;;;;;5.90;1.35;;;;;;;14.10;98.72;97301.72;5103853;28;20087;-49
2023/02/20 01:01:07;;;;;;;3.78;1.30;;;;;;;14.19;98.02;97300.03;5100277;28;20531;-47
2023/02/20 01:03:35;;;;;;;4.13;1.50;;;;;;;13.85;100.00;97295.25;5097669;28;20464;-49
2023/02/20 01:06:04;;;;;;;2.35;1.40;;;;;;;14.15;94.18;97302.13;5100633;28;20168;-47
2023/02/20 01:08:33;;;;;;;4.13;1.60;;;;;;;13.48;100.00;97300.50;5099620;27;20083;-51
2023/02/20 01:11:01;;;;;;;10.15;1.60;;;;;;;14.12;97.46;97301.59;5100105;27;20075;-52
2023/02/20 01:13:30;;;;;;;2.40;1.30;;;;;;;14.00;98.91;97306.22;5101394;27;20068;-49
2023/02/20 01:15:58;;;;;;;5.60;1.48;;;;;;;14.62;91.13;97303.88;5104301;27;20091;-50
2023/02/20 01:18:26;;;;;;;4.55;1.40;;;;;;;14.00;98.75;97309.75;5103127;27;20099;-56
2023/02/20 01:20:55;;;;;;;4.28;1.17;;;;;;;13.98;94.81;97306.38;5097052;28;20098;-53
2023/02/20 01:23:23;;;;;;;4.65;1.42;;;;;;;13.90;92.32;97303.63;5099265;27;20083;-45
2023/02/20 01:25:53;;;;;;;4.18;1.75;;;;;;;14.15;92.61;97294.19;5119983;27;20089;-50
2023/02/20 01:28:21;;;;;;;3.47;1.27;;;;;;;13.50;95.72;97296.75;5096510;27;20098;-46
2023/02/20 01:30:50;;;;;;;4.57;1.58;;;;;;;14.15;97.10;97296.00;5097007;27;20075;-52
2023/02/20 01:33:18;;;;;;;2.80;1.42;;;;;;;14.38;93.89;97291.13;5107777;27;20063;-48
2023/02/20 01:35:46;;;;;;;3.47;1.27;;;;;;;14.43;90.38;97292.34;5102421;27;20074;-50
2023/02/20 01:38:15;;;;;;;2.83;1.30;;;;;;;14.02;98.07;97293.66;5102873;28;20094;-46
2023/02/20 01:40:47;;;;;;;4.68;1.40;;;;;;;13.71;97.20;97280.66;5096003;27;20071;-50
2023/02/20 01:43:17;;;;;;;5.93;1.30;;;;;;;13.77;100.00;97288.03;5103508;27;20076;-54
2023/02/20 01:45:45;;;;;;;3.50;1.13;;;;;;;13.69;100.00;97301.16;5106405;27;20074;-47
2023/02/20 01:48:20;;;;;;;5.55;1.55;;;;;;;13.91;96.47;97288.56;5102113;27;20541;-51
2023/02/20 01:50:48;;;;;;;4.47;1.13;;;;;;;13.45;100.00;97290.19;5101116;28;20072;-55
2023/02/20 01:53:20;;;;;;;3.38;1.33;;;;;;;13.74;100.00;97292.78;5103331;27;20083;-47
2023/02/20 01:55:50;;;;;;;5.38;1.50;;;;;;;13.69;100.00;97287.91;5102494;27;20079;-53
2023/02/20 01:58:23;;;;;;;4.40;1.65;;;;;;;14.14;92.42;97278.38;5103600;27;20557;-48
2023/02/20 02:00:52;;;;;;;3.00;1.65;;;;;;;14.05;97.12;97276.63;5098493;27;20067;-49
2023/02/20 02:03:23;;;;;;;2.15;1.10;;;;;;;13.73;100.00;97275.22;5096335;27;20077;-53
2023/02/20 02:05:52;;;;;;;;;;;;;;;13.61;100.00;97276.38;5101645;27;20078;-49
2023/02/20 02:08:22;;;;;;;3.25;1.23;;;;;;;13.31;100.00;97280.88;5104126;27;20424;-50
2023/02/20 02:10:54;;;;;;;4.03;1.20;;;;;;;13.31;100.00;97278.22;5109773;27;20078;-47
2023/02/20 02:13:24;;;;;;;2.80;1.23;;;;;;;14.15;98.14;97282.75;5098841;27;20063;-50
2023/02/20 02:15:52;;;;;;;1.83;1.10;;;;;;;13.72;100.00;97277.00;5098742;27;20091;-49
2023/02/20 02:18:32;;;;;;;4.13;1.20;;;;;;;13.83;100.00;97283.94;5097788;27;20086;-45
2023/02/20 02:21:21;;;;;;;2.40;1.33;;;;;;;13.56;100.00;97286.53;5101255;27;20083;-47
2023/02/20 02:24:26;;;;;;;2.28;1.25;;;;;;;13.88;100.00;97278.25;5105719;27;20059;-49
2023/02/20 02:27:13;;;;;;;3.75;1.58;;;;;;;13.80;100.00;97288.72;5080331;27;20089;-50
2023/02/20 02:30:03;;;;;;;4.10;0.98;;;;;;;13.49;100.00;97284.47;5099839;28;20502;-54
2023/02/20 02:32:57;;;;;;;2.33;1.13;;;;;;;13.81;100.00;97280.63;5094849;27;20141;-52
2023/02/20 02:35:38;;;;;;;2.67;1.10;;;;;;;13.70;100.00;97286.09;5090898;27;20075;-54
2023/02/20 02:38:15;;;;;;;2.65;1.10;;;;;;;13.41;100.00;97294.94;5099623;27;20462;-51
2023/02/20 02:40:47;;;;;;;3.20;1.20;;;;;;;13.24;100.00;97296.47;5095675;27;20072;-50
2023/02/20 02:43:18;;;;;;;3.25;1.25;;;;;;;13.78;100.00;97280.91;5099000;27;20055;-50
2023/02/20 02:45:47;;;;;;;;;;;;;;;13.68;100.00;97275.63;5097762;28;20064;-50
2023/02/20 02:48:19;;;;;;;3.55;1.30;;;;;;;13.56;100.00;97283.88;5100110;27;20525;-48
2023/02/20 02:50:48;;;;;;;2.92;1.23;;;;;;;13.15;100.00;97280.59;5098752;27;20542;-49
2023/02/20 02:53:18;;;;;;;5.50;2.13;;;;;;;13.73;100.00;97273.41;5103165;27;20071;-50
2023/02/20 02:55:46;;;;;;;1.77;1.25;;;;;;;13.61;100.00;97277.19;5093924;28;20087;-48
2023/02/20 02:58:16;;;;;;;2.47;1.42;;;;;;;13.40;100.00;97280.03;5102200;27;20083;-52
2023/02/20 03:00:47;;;;;;;3.70;1.38;;;;;;;13.88;100.00;97271.13;5104336;27;20082;-50
2023/02/20 03:03:20;;;;;;;2.03;1.38;;;;;;;13.79;100.00;97274.63;5098701;28;20469;-52
2023/02/20 03:05:52;;;;;;;2.70;1.58;;;;;;;13.88;100.00;97281.72;5093887;28;20071;-49
2023/02/20 03:08:35;;;;;;;2.97;1.65;;;;;;;13.80;100.00;97272.81;5092521;28;20066;-47
2023/02/20 03:11:06;;;;;;;5.45;1.50;;;;;;;13.40;100.00;97268.59;5084521;28;20118;-55
2023/02/20 03:16:28;;;;;;;3.60;1.63;;;;;;;13.36;100.00;97264.56;5085638;28;21794;-54
2023/02/20 03:18:59;;;;;;;4.18;1.25;;;;;;;13.75;100.00;97260.81;5084936;28;20123;-55
2023/02/20 03:21:30;;;;;;;6.30;1.75;;;;;;;13.69;100.00;97260.56;5081546;28;20071;-48
2023/02/20 03:24:01;;;;;;;3.42;1.48;;;;;;;13.62;100.00;97254.16;5087775;28;20128;-51
2023/02/20 03:26:33;;;;;;;3.88;1.80;;;;;;;13.89;100.00;97254.22;5084870;27;20099;-49
2023/02/20 03:29:03;;;;;;;2.58;1.27;;;;;;;13.44;100.00;97257.56;5105682;27;20455;-47
2023/02/20 03:31:35;;;;;;;5.57;1.77;;;;;;;13.28;100.00;97257.31;5089547;28;20539;-47
2023/02/20 03:45:22;;;;;;;6.82;1.48;;;;;;;13.49;100.00;97258.00;5099679;27;20056;-48
2023/02/20 03:47:54;;;;;;;4.25;1.80;;;;;;;13.18;100.00;97270.56;5110442;27;20510;-50
2023/02/20 03:53:08;;;;;;;2.63;1.35;;;;;;;13.28;100.00;97278.50;5096364;28;20068;-50
2023/02/20 03:55:38;;;;;;;7.50;1.90;;;;;;;13.68;100.00;97272.16;5092864;27;20076;-45
2023/02/20 03:58:09;;;;;;;6.00;1.70;;;;;;;13.49;100.00;97276.53;5102439;27;20067;-50
2023/02/20 04:00:41;;;;;;;1.98;1.27;;;;;;;13.26;100.00;97277.81;5093204;27;20110;-53
2023/02/20 04:03:13;;;;;;;5.60;1.70;;;;;;;13.27;100.00;97288.25;5100551;28;20070;-47
2023/02/20 04:05:45;;;;;;;7.88;1.63;;;;;;;13.04;100.00;97282.41;5095100;28;20079;-52
2023/02/20 04:08:16;;;;;;;4.65;1.83;;;;;;;12.99;100.00;97279.31;5096733;28;20076;-48
2023/02/20 04:10:49;;;;;;;5.00;2.08;;;;;;;13.17;100.00;97284.75;5101201;28;20109;-48
2023/02/20 04:13:18;;;;;;;6.68;2.10;;;;;;;13.09;100.00;97286.44;5097331;28;20074;-47
2023/02/20 04:15:47;;;;;;;4.78;1.35;;;;;;;12.94;100.00;97281.56;5107726;28;20091;-47
2023/02/20 04:18:18;;;;;;;4.32;2.08;;;;;;;13.12;100.00;97272.94;5106743;28;20522;-46
2023/02/20 04:20:47;;;;;;;6.35;2.08;;;;;;;12.75;100.00;97281.56;5103658;28;20654;-53
2023/02/20 04:23:17;;;;;;;3.33;1.50;;;;;;;12.75;100.00;97285.03;5100913;28;20081;-48
2023/02/20 04:25:48;;;;;;;4.82;2.00;;;;;;;12.92;100.00;97274.75;5090981;28;20071;-52
2023/02/20 04:28:18;;;;;;;6.10;1.60;;;;;;;12.75;100.00;97285.03;5092090;28;20079;-52
2023/02/20 04:30:46;;;;;;;4.45;1.73;;;;;;;12.73;100.00;97294.06;5100062;28;20075;-49
2023/02/20 04:33:15;;;;;;;4.65;1.83;;;;;;;12.99;100.00;97284.63;5097873;28;20059;-46
2023/02/20 04:35:44;;;;;;;5.68;2.25;;;;;;;12.20;100.00;97289.94;5099614;28;20083;-53
2023/02/20 04:38:12;;;;;;;5.32;2.35;;;;;;;12.74;100.00;97282.53;5096039;28;20079;-51
2023/02/20 04:40:40;;;;;;;3.75;1.80;;;;;;;12.80;100.00;97276.66;5090667;28;20084;-53
2023/02/20 04:43:10;;;;;;;2.40;1.52;;;;;;;12.82;100.00;97275.56;5099829;27;20090;-52
2023/02/20 04:45:38;;;;;;;3.28;1.40;;;;;;;12.73;100.00;97275.53;5096751;27;20079;-52
2023/02/20 04:48:07;;;;;;;4.63;1.85;;;;;;;12.67;100.00;97273.47;5098364;27;20087;-47
2023/02/20 04:50:35;;;;;;;4.43;2.10;;;;;;;12.41;100.00;97266.03;5098034;27;20084;-48
2023/02/20 04:53:03;;;;;;;5.00;1.95;;;;;;;12.66;100.00;97272.59;5096206;27;20079;-51
2023/02/20 04:55:32;;;;;;;2.03;1.33;;;;;;;12.42;100.00;97261.56;5090445;28;20091;-48
2023/02/20 04:58:00;;;;;;;6.07;1.98;;;;;;;12.68;100.00;97262.72;5101187;27;20098;-51
2023/02/20 05:00:29;;;;;;;4.60;2.30;;;;;;;12.69;100.00;97277.63;5119193;27;20078;-50
2023/02/20 05:02:58;;;;;;;4.20;2.30;;;;;;;13.04;100.00;97273.59;5110525;27;20071;-48
2023/02/20 05:05:28;;;;;;;5.80;2.40;;;;;;;12.39;100.00;97281.22;5121524;27;20087;-53
2023/02/20 05:07:57;;;;;;;4.00;2.00;;;;;;;12.63;100.00;97278.22;5108481;27;20087;-50
2023/02/20 05:10:26;;;;;;;3.50;2.03;;;;;;;12.35;100.00;97275.38;5120017;27;20093;-53
2023/02/20 05:12:55;;;;;;;3.08;2.13;;;;;;;12.23;100.00;97276.44;5106666;27;20091;-51
2023/02/20 05:15:23;;;;;;;3.38;2.03;;;;;;;12.27;100.00;97280.47;5111736;27;20098;-48
2023/02/20 05:17:53;;;;;;;5.25;2.10;;;;;;;12.38;100.00;97284.00;5117214;27;20093;-51
2023/02/20 05:22:17;;;;;;;2.75;1.90;;;;;;;12.55;100.00;97296.56;5110216;27;20097;-50
2023/02/20 05:23:09;;;;;;;6.40;2.28;;;;;;;12.15;100.00;97291.28;5114070;27;20125;-54
2023/02/20 05:25:37;;;;;;;4.85;2.05;;;;;;;12.33;100.00;97290.53;5104038;27;20094;-55
2023/02/20 05:28:05;;;;;;;3.28;2.00;;;;;;;12.87;100.00;97293.69;5111784;27;20087;-51
2023/02/20 05:30:34;;;;;;;5.55;2.20;;;;;;;12.22;100.00;97287.16;5103121;27;20083;-50
2023/02/20 05:33:03;;;;;;;6.30;2.33;;;;;;;12.14;100.00;97285.16;5116724;27;20109;-49
2023/02/20 05:35:32;;;;;;;6.60;2.43;;;;;;;12.03;100.00;97290.56;5104817;27;20091;-51
2023/02/20 05:38:00;;;;;;;2.88;2.10;;;;;;;12.05;100.00;97288.63;5111738;27;20488;-54
2023/02/20 05:40:28;;;;;;;3.50;1.98;;;;;;;11.96;100.00;97292.06;5105354;27;20082;-48
2023/02/20 05:42:56;;;;;;;4.68;2.40;;;;;;;12.54;100.00;97301.00;5112341;27;20083;-54
2023/02/20 05:45:25;;;;;;;5.93;1.95;;;;;;;11.90;100.00;97295.22;5103071;27;20502;-51
2023/02/20 05:47:53;;;;;;;7.53;3.97;;;;;;;12.19;100.00;97296.19;5105780;27;20393;-52
2023/02/20 05:50:23;;;;;;;4.72;2.28;;;;;;;11.85;100.00;97303.56;5100786;28;20075;-45
2023/02/20 05:52:52;;;;;;;4.80;2.30;;;;;;;12.20;100.00;97308.44;5107666;27;20550;-52
2023/02/20 05:55:20;;;;;;;3.88;2.35;;;;;;;12.17;100.00;97306.06;5109344;27;20085;-49
2023/02/20 05:57:49;;;;;;;3.55;2.13;;;;;;;12.79;100.00;97304.13;5102406;27;20082;-50
2023/02/20 06:00:18;;;;;;;5.20;2.60;;;;;;;12.31;100.00;97315.44;5119428;27;20093;-46
2023/02/20 06:02:47;;;;;;;5.07;2.53;;;;;;;12.36;100.00;97310.59;5100698;27;20087;-55
2023/02/20 06:05:15;;;;;;;4.28;2.72;;;;;;;12.11;100.00;97320.66;5115420;27;20504;-49
2023/02/20 06:07:45;;;;;;;4.70;2.92;;;;;;;12.61;100.00;97319.00;5104806;27;20080;-51
2023/02/20 06:10:17;;;;;;;7.57;2.70;;;;;;;12.49;100.00;97320.91;5110533;27;20079;-49
2023/02/20 06:12:45;;;;;;;7.05;3.13;;;;;;;12.55;100.00;97320.38;5104180;27;20480;-49
2023/02/20 06:15:14;;;;;;;5.63;2.80;;;;;;;12.79;100.00;97315.53;5117327;27;20094;-48
2023/02/20 06:17:42;;;;;;;5.00;2.40;;;;;;;12.56;100.00;97309.66;5108347;27;20091;-50
2023/02/20 06:20:12;;;;;;;6.53;2.88;;;;;;;12.42;100.00;97307.41;5119720;27;20075;-54
2023/02/20 06:22:40;;;;;;;6.38;2.38;;;;;;;12.30;100.00;97319.88;5105928;27;20109;-50
2023/02/20 06:25:10;;;;;;;3.38;2.50;;;;;;;12.41;100.00;97318.94;5105853;27;20553;-47
2023/02/20 06:27:41;;;;;;;6.25;2.53;;;;;;;12.16;100.00;97324.72;5116247;27;20083;-49
2023/02/20 06:30:10;;;;;;;5.47;2.58;;;;;;;12.53;100.00;97327.63;5105534;27;20452;-46
2023/02/20 06:32:39;;;;;;;6.85;3.28;;;;;;;12.40;100.00;97325.22;5115812;27;20127;-48
2023/02/20 06:35:08;;;;;;;6.25;2.85;;;;;;;12.80;100.00;97329.59;5107171;27;20082;-48
2023/02/20 06:37:37;;;;;;;10.15;3.00;;;;;;;13.18;100.00;97325.31;5113848;27;20550;-53
2023/02/20 06:40:06;;;;;;;6.45;2.67;;;;;;;12.26;100.00;97321.13;5109143;27;20598;-50
2023/02/20 06:42:35;;;;;;;8.02;3.15;;;;;;;12.38;100.00;97329.78;5104133;27;20086;-49
2023/02/20 06:45:04;;;;;;;5.22;3.00;;;;;;;12.57;100.00;97321.91;5114380;27;20074;-52
2023/02/20 06:47:32;;;;;;;6.47;2.33;;;;;;;13.14;100.00;97327.41;5108179;27;20091;-50
2023/02/20 06:50:00;;;;;;;7.93;3.40;;;;;;;12.79;100.00;97333.22;5117516;27;20079;-53
2023/02/20 06:52:29;;;;;;;5.32;2.70;;;;;;;12.54;100.00;97334.56;5104449;27;20083;-51
2023/02/20 06:54:58;;;;;;;6.30;3.00;;;;;;;12.38;100.00;97342.19;5109119;27;20488;-49
2023/02/20 06:57:26;;;;;;;5.65;3.00;;;;;;;12.69;100.00;97345.59;5107540;27;20078;-49
2023/02/20 06:59:55;;;;;;;8.55;2.78;;;;;;;13.06;100.00;97340.50;5118819;27;20527;-47
2023/02/20 07:02:24;;;;;;;7.57;2.70;;;;;;;12.85;100.00;97337.16;5104915;27;20074;-48
2023/02/20 07:04:52;;;;;;;6.20;3.25;;;;;;;12.76;100.00;97344.09;5101812;28;20087;-53
2023/02/20 07:07:20;;;;;;;4.93;2.92;;;;;;;12.51;100.00;97348.06;5105725;27;20083;-50
2023/02/20 07:09:48;;;;;;;8.20;3.28;;;;;;;12.98;100.00;97358.91;5101116;28;20071;-47
2023/02/20 07:12:17;;;;;;;6.57;2.13;;;;;;;12.83;100.00;97356.66;5107591;27;20614;-45
2023/02/20 07:14:45;;;;;;;4.78;2.45;;;;;;;13.21;100.00;97355.03;5108479;27;20079;-49
2023/02/20 07:17:15;;;;;;;4.82;2.60;;;;;;;12.39;100.00;97359.72;5106929;27;20087;-46
2023/02/20 07:19:43;;;;;;;5.70;2.83;;;;;;;12.61;100.00;97356.88;5112306;27;20072;-52
2023/02/20 07:22:11;;;;;;;6.68;3.22;;;;;;;12.42;100.00;97357.66;5115052;27;20565;-48
2023/02/20 07:24:40;;;;;;;6.00;2.70;;;;;;;12.77;100.00;97359.84;5099061;27;20094;-47
2023/02/20 07:27:09;;;;;;;5.55;2.88;;;;;;;13.14;100.00;97361.84;5114567;27;20082;-47
2023/02/20 07:29:40;;;;;;;4.80;2.35;;;;;;;12.25;100.00;97369.72;5100135;27;20129;-49
2023/02/20 07:32:08;;;;;;;;;;;;;;;12.25;100.00;97360.91;5125628;27;20728;-48
2023/02/20 07:34:38;;;;;;;5.15;2.47;;;;;;;12.40;100.00;97356.13;5104401;27;19955;-49
2023/02/20 07:37:06;;;;;;;9.55;2.65;;;;;;;12.57;100.00;97368.72;5106889;27;20088;-45
2023/02/20 07:39:34;;;;;;;6.38;3.30;;;;;;;13.11;100.00;97348.91;5106001;27;20091;-47
2023/02/20 07:42:03;;;;;;;6.93;3.10;;;;;;;13.14;100.00;97356.53;5111584;27;20114;-48
2023/02/20 07:44:31;;;;;;;6.28;3.15;;;;;;;13.34;100.00;97348.63;5098089;27;20075;-53
2023/02/20 07:47:00;;;;;;;6.65;3.00;;;;;;;12.66;100.00;97346.72;5103325;27;20079;-48
2023/02/20 07:49:28;;;;;;;6.63;2.60;;;;;;;12.77;100.00;97337.84;5109466;27;20466;-51
2023/02/20 07:51:58;;;;;;;6.00;2.72;;;;;;;12.81;100.00;97341.88;5096673;27;20084;-52
2023/02/20 07:54:27;;;;;;;8.00;3.05;;;;;;;12.76;100.00;97334.34;5103331;28;20614;-49
2023/02/20 07:56:55;;;;;;;7.95;2.90;;;;;;;13.46;100.00;97331.63;5102311;28;20080;-50
2023/02/20 07:59:24;;;;;;;7.57;3.05;;;;;;;12.92;100.00;97325.03;5101985;27;20082;-50
2023/02/20 08:01:52;;;;;;;6.40;2.58;;;;;;;13.14;100.00;97322.09;5099967;27;20098;-50
2023/02/20 08:04:20;;;;;;;8.10;3.28;;;;;;;13.37;100.00;97322.69;5110428;28;20550;-47
2023/02/20 08:06:49;;;;;;;6.35;2.65;;;;;;;13.60;92.24;97307.34;5098711;28;20083;-47
2023/02/20 08:09:18;;;;;;;5.57;2.55;;;;;;;13.74;100.00;97309.53;5103842;28;20586;-51
2023/02/20 08:11:46;;;;;;;6.50;2.50;;;;;;;14.00;100.00;97306.22;5102700;28;20080;-50
2023/02/20 08:14:15;;;;;;;5.85;1.45;;;;;;;13.93;100.00;97305.13;5109341;28;20479;-51
2023/02/20 08:16:43;;;;;;;4.50;2.13;;;;;;;14.27;94.80;97301.94;5107832;27;20097;-47
2023/02/20 08:19:11;;;;;;;3.15;1.25;;;;;;;14.00;96.93;97300.91;5110309;27;20090;-48
2023/02/20 08:21:40;;;;;;;7.45;2.10;;;;;;;13.82;98.75;97306.16;5120744;27;20085;-49
2023/02/20 08:24:08;;;;;;;4.50;2.20;;;;;;;13.48;100.00;97313.75;5108634;27;20094;-50
2023/02/20 08:26:44;;;;;;;4.05;1.80;;;;;;;13.79;100.00;97303.78;5119180;27;20079;-45
2023/02/20 08:29:12;;;;;;;5.22;2.15;;;;;;;14.52;90.22;97303.09;5109300;27;20082;-44
2023/02/20 08:31:41;;;;;;;7.30;2.40;;;;;;;14.43;84.84;97307.44;5108552;28;20080;-50
2023/02/20 08:34:09;;;;;;;6.75;1.70;;;;;;;14.36;90.51;97301.91;5101698;27;20083;-51
2023/02/20 08:36:37;;;;;;;6.25;2.65;;;;;;;14.59;81.88;97288.22;5120138;27;20091;-49
2023/02/20 08:39:06;;;;;;;6.05;2.40;;;;;;;14.74;74.59;97288.59;5106400;27;20082;-48
2023/02/20 08:41:34;;;;;;;3.17;2.03;;;;;;;14.47;85.25;97306.16;5101316;27;20072;-50
2023/02/20 08:44:04;;;;;;;4.15;1.90;;;;;;;14.66;88.36;97306.09;5115896;27;20079;-48
2023/02/20 08:46:32;;;;;;;5.78;2.10;;;;;;;15.47;78.07;97286.56;5108941;27;20106;-47
2023/02/20 08:49:01;;;;;;;6.80;2.35;;;;;;;15.00;76.56;97272.72;5109647;27;20535;-51
2023/02/20 08:51:29;;;;;;;5.93;2.03;;;;;;;14.96;82.76;97273.00;5109129;27;20082;-47
2023/02/20 08:53:57;;;;;;;4.32;1.88;;;;;;;14.66;77.78;97268.94;5114742;27;20087;-48
2023/02/20 08:56:26;;;;;;;7.20;2.10;;;;;;;14.68;81.64;97276.72;5103289;27;20083;-48
2023/02/20 08:58:54;;;;;;;5.18;2.40;;;;;;;14.79;76.17;97257.09;5120987;27;20558;-52
2023/02/20 09:01:24;;;;;;;4.68;2.00;;;;;;;14.52;78.43;97258.81;5106262;27;20082;-52
2023/02/20 09:03:52;;;;;;;5.43;2.20;;;;;;;14.70;75.99;97254.38;5119154;27;20094;-54
2023/02/20 09:06:23;;;;;;;5.38;2.17;;;;;;;14.84;75.32;97245.03;5107190;27;20083;-53
2023/02/20 09:08:51;;;;;;;;;;;;;;;15.41;67.50;97234.84;5120806;27;20084;-49
2023/02/20 09:11:20;;;;;;;5.05;1.55;;;;;;;15.20;67.98;97252.97;5114621;27;20369;-50
2023/02/20 09:13:49;;;;;;;6.38;2.55;;;;;;;15.15;72.97;97244.63;5096441;28;20540;-53
2023/02/20 09:16:20;;;;;;;3.88;2.03;;;;;;;14.31;78.43;97251.06;5113092;27;20081;-49
2023/02/20 09:18:50;;;;;;;3.38;1.88;;;;;;;15.20;73.66;97255.63;5096376;27;20087;-48
2023/02/20 09:21:19;;;;;;;6.00;2.35;;;;;;;15.87;69.56;97259.44;5112642;27;20145;-48
2023/02/20 09:23:47;;;;;;;4.45;1.77;;;;;;;15.66;67.20;97253.66;5108234;27;20120;-50
2023/02/20 09:26:16;;;;;;;3.15;1.75;;;;;;;15.19;69.56;97238.03;5125561;27;20622;-47
2023/02/20 09:28:44;;;;;;;6.13;2.00;;;;;;;15.54;72.36;97247.72;5100693;27;20080;-50
2023/02/20 09:31:12;;;;;;;4.70;1.77;;;;;;;15.79;73.95;97246.06;5121028;27;20079;-46
2023/02/20 09:33:44;;;;;;;6.15;1.52;;;;;;;15.92;66.58;97252.81;5104414;27;20078;-49
2023/02/20 09:36:19;;;;;;;2.72;1.40;;;;;;;16.02;70.00;97238.38;5105503;27;20087;-50
2023/02/20 09:38:48;;;;;;;3.13;1.63;;;;;;;15.80;67.27;97241.63;5105651;27;20083;-54
2023/02/20 09:41:28;;;;;;;3.75;1.48;;;;;;;15.48;67.76;97223.59;5109495;27;20090;-51
2023/02/20 09:44:01;;;;;;;4.38;1.70;;;;;;;15.43;67.95;97222.25;5106060;27;20080;-51
2023/02/20 09:46:29;;;;;;;2.65;1.70;;;;;;;15.22;67.76;97229.75;5105970;27;20083;-48
2023/02/20 09:49:03;;;;;;;2.67;1.58;;;;;;;15.73;66.70;97212.16;5120703;27;20273;-53
2023/02/20 09:51:37;;;;;;;2.40;1.40;;;;;;;15.39;70.42;97202.28;5108845;27;20079;-49
2023/02/20 09:54:08;;;;;;;4.90;1.70;;;;;;;15.48;72.18;97194.34;5112692;27;20472;-49
2023/02/20 09:56:38;;;;;;;;;;;;;;;15.76;67.53;97197.69;5109838;27;20473;-49
2023/02/20 09:59:12;;;;;;;3.35;1.83;;;;;;;16.18;68.45;97188.91;5104599;27;19955;-50
2023/02/20 10:01:46;;;;;;;8.15;2.30;;;;;;;15.98;62.95;97188.31;5111004;27;20075;-48
2023/02/20 10:04:16;;;;;;;3.33;1.48;;;;;;;16.36;61.40;97184.28;5108432;27;20085;-49
2023/02/20 10:06:46;;;;;;;3.15;2.25;;;;;;;16.27;62.48;97185.25;5110601;27;20083;-50
2023/02/20 10:09:16;;;;;;;2.78;1.30;;;;;;;16.58;59.75;97188.97;5099947;27;20086;-47
2023/02/20 10:11:50;;;;;;;5.63;1.83;;;;;;;16.27;57.96;97188.75;5108836;27;20082;-48
2023/02/20 10:14:34;;;;;;;3.33;1.73;;;;;;;17.32;62.61;97181.84;5106802;27;20089;-47
2023/02/20 10:17:09;;;;;;;4.32;1.33;;;;;;;16.50;56.32;97185.47;5109556;27;20079;-52
2023/02/20 10:19:43;;;;;;;2.67;1.38;;;;;;;16.66;59.74;97195.34;5108949;27;20539;-53
2023/02/20 10:22:16;;;;;;;4.20;1.30;;;;;;;17.64;59.49;97185.44;5100516;28;20082;-49
2023/02/20 10:24:52;;;;;;;3.60;1.70;;;;;;;17.04;55.04;97186.72;5109287;27;20083;-47
2023/02/20 10:27:27;;;;;;;4.40;1.30;;;;;;;16.89;54.93;97182.22;5104635;27;20071;-51
2023/02/20 10:29:57;;;;;;;2.40;1.45;;;;;;;16.52;54.91;97164.84;5118006;27;20471;-47
2023/02/20 10:32:28;;;;;;;2.70;1.30;;;;;;;17.14;59.77;97167.88;5104578;27;20558;-49
2023/02/20 10:34:59;;;;;;;5.32;1.45;;;;;;;17.15;54.58;97166.06;5112753;27;20090;-53
2023/02/20 10:37:34;;;;;;;3.08;1.30;;;;;;;17.14;53.41;97156.41;5099358;27;20192;-54
2023/02/20 10:40:19;;;;;;;3.40;1.45;;;;;;;17.74;54.37;97154.06;5107392;27;20078;-50
2023/02/20 10:42:54;;;;;;;3.30;1.83;;;;;;;17.52;53.24;97147.66;5104934;27;20086;-46
2023/02/20 10:45:27;;;;;;;5.25;2.03;;;;;;;16.88;53.59;97164.56;5115468;27;20092;-49
2023/02/20 10:48:00;;;;;;;5.13;1.70;;;;;;;17.30;56.07;97157.19;5110290;27;20087;-50
2023/02/20 10:50:33;;;;;;;3.55;1.73;;;;;;;17.33;54.51;97150.69;5097921;27;20570;-47
2023/02/20 10:53:07;;;;;;;3.55;1.15;;;;;;;17.53;51.86;97140.47;5118277;27;20070;-49
2023/02/20 10:55:41;;;;;;;3.47;1.42;;;;;;;17.30;53.87;97146.50;5099407;27;20713;-51
2023/02/20 10:58:14;;;;;;;5.32;1.73;;;;;;;17.27;52.29;97143.34;5111321;27;20090;-51
2023/02/20 11:00:47;;;;;;;3.50;1.38;;;;;;;17.71;51.01;97129.56;5102703;27;20087;-53
2023/02/20 11:03:18;;;;;;;3.30;1.33;;;;;;;18.02;51.86;97129.63;5114087;27;20075;-47
2023/02/20 11:05:50;;;;;;;2.13;1.42;;;;;;;17.39;52.02;97126.00;5104102;27;20076;-50
2023/02/20 11:08:20;;;;;;;4.00;1.65;;;;;;;17.96;50.18;97123.16;5107896;27;20078;-50
2023/02/20 11:10:50;;;;;;;2.05;1.23;;;;;;;18.05;48.82;97120.44;5111743;27;20081;-50
2023/02/20 11:13:22;;;;;;;3.20;1.27;;;;;;;17.82;48.85;97113.19;5106796;27;20085;-49
2023/02/20 11:15:52;;;;;;;2.45;1.25;;;;;;;18.24;51.04;97114.66;5112582;27;20456;-52
2023/02/20 11:18:25;;;;;;;1.65;1.08;;;;;;;18.68;49.65;97103.31;5106903;27;20519;-53
2023/02/20 11:20:55;;;;;;;2.97;1.52;;;;;;;17.98;48.71;97112.31;5113506;27;20161;-48
2023/02/20 11:23:42;;;;;;;4.82;2.03;;;;;;;18.42;46.14;97093.84;5101939;27;20075;-49
2023/02/20 11:26:17;;;;;;;3.22;1.67;;;;;;;18.79;49.29;97094.91;5105314;27;20090;-51
2023/02/20 11:28:55;;;;;;;3.22;1.60;;;;;;;18.52;48.33;97104.28;5113430;27;20051;-48
2023/02/20 11:31:24;;;;;;;4.47;1.20;;;;;;;18.60;46.79;97096.19;5112456;27;20074;-49
2023/02/20 11:33:55;;;;;;;2.75;1.50;;;;;;;18.38;48.17;97089.88;5103868;27;20463;-48
2023/02/20 11:36:25;;;;;;;2.25;1.35;;;;;;;18.57;47.52;97077.03;5100487;27;20072;-51
2023/02/20 11:38:59;;;;;;;2.67;1.60;;;;;;;19.17;47.14;97076.16;5106152;28;20084;-48
2023/02/20 11:41:31;;;;;;;5.03;1.98;;;;;;;18.94;47.12;97079.72;5105394;27;20066;-53
2023/02/20 11:44:21;;;;;;;3.80;1.67;;;;;;;19.35;49.84;97070.44;5107745;27;20523;-47
2023/02/20 11:47:17;;;;;;;3.28;1.88;;;;;;;19.50;47.68;97060.56;5106647;27;20083;-52
2023/02/20 11:49:46;;;;;;;3.63;1.38;;;;;;;18.55;48.00;97061.19;5094913;28;20087;-51
2023/02/20 11:52:19;;;;;;;3.03;1.65;;;;;;;18.73;46.15;97056.38;5115988;27;20078;-52
2023/02/20 11:55:09;;;;;;;5.18;1.80;;;;;;;18.71;47.47;97054.84;5100326;27;20079;-49
2023/02/20 11:57:42;;;;;;;4.00;1.83;;;;;;;18.57;47.91;97055.66;5113189;27;20079;-48
2023/02/20 12:00:16;;;;;;;2.88;1.75;;;;;;;18.94;48.87;97036.13;5104334;27;20083;-47
2023/02/20 12:02:55;;;;;;;7.32;2.50;;;;;;;19.16;46.00;97035.22;5118243;27;20501;-52